createdAt,value
2023-02-05T00:00:15.648Z,9.59
2023-02-05T00:01:28.147Z,9.61
2023-02-05T00:02:37.614Z,9.62
2023-02-05T00:03:46.529Z,9.61
2023-02-05T00:04:49.412Z,9.62
2023-02-05T00:05:51.027Z,9.62
2023-02-05T00:07:03.961Z,9.60
2023-02-05T00:08:15.494Z,9.60
2023-02-05T00:09:18.162Z,9.60
2023-02-05T00:10:20.031Z,9.59
2023-02-05T00:11:26.896Z,9.60
2023-02-05T00:12:38.761Z,9.60
2023-02-05T00:13:43.131Z,9.61
2023-02-05T00:14:44.857Z,9.63
2023-02-05T00:15:47.396Z,9.64
2023-02-05T00:16:49.380Z,9.65
2023-02-05T00:18:02.019Z,9.66
2023-02-05T00:19:05.008Z,9.67
2023-02-05T00:20:08.656Z,9.67
2023-02-05T00:21:22.430Z,9.68
2023-02-05T00:22:25.000Z,9.67
2023-02-05T00:23:26.753Z,9.67
2023-02-05T00:24:29.338Z,9.68
2023-02-05T00:25:40.150Z,9.68
2023-02-05T00:26:52.633Z,9.69
2023-02-05T00:27:54.180Z,9.69
2023-02-05T00:28:56.785Z,9.70
2023-02-05T00:29:58.440Z,9.69
2023-02-05T00:31:01.803Z,9.69
2023-02-05T00:32:03.798Z,9.70
2023-02-05T00:33:06.302Z,9.71
2023-02-05T00:34:09.236Z,9.70
2023-02-05T00:35:12.491Z,9.70
2023-02-05T00:36:14.348Z,9.71
2023-02-05T00:37:16.886Z,9.70
2023-02-05T00:38:18.757Z,9.70
2023-02-05T00:39:21.934Z,9.69
2023-02-05T00:40:23.609Z,9.67
2023-02-05T00:41:36.097Z,9.66
2023-02-05T00:42:37.733Z,9.65
2023-02-05T00:43:40.812Z,9.64
2023-02-05T00:44:42.387Z,9.63
2023-02-05T00:45:55.233Z,9.63
2023-02-05T00:47:06.781Z,9.63
2023-02-05T00:48:09.442Z,9.61
2023-02-05T00:49:12.327Z,9.62
2023-02-05T00:50:14.919Z,9.60
2023-02-05T00:51:26.315Z,9.59
2023-02-05T00:52:28.896Z,9.57
2023-02-05T00:53:30.573Z,9.58
2023-02-05T00:54:33.346Z,9.57
2023-02-05T00:55:35.527Z,9.56
2023-02-05T00:56:38.252Z,9.55
2023-02-05T00:57:39.920Z,9.55
2023-02-05T00:58:47.329Z,9.55
2023-02-05T00:59:49.017Z,9.54
2023-02-05T01:00:52.247Z,9.53
2023-02-05T01:01:54.551Z,9.52
2023-02-05T01:02:57.302Z,9.52
2023-02-05T01:04:06.464Z,9.52
2023-02-05T01:05:20.277Z,9.51
2023-02-05T01:06:21.913Z,9.51
2023-02-05T01:07:24.459Z,9.51
2023-02-05T01:08:28.991Z,9.51
2023-02-05T01:09:41.478Z,9.52
2023-02-05T01:10:44.897Z,9.50
2023-02-05T01:11:57.365Z,9.50
2023-02-05T01:12:59.133Z,9.49
2023-02-05T01:14:01.779Z,9.48
2023-02-05T01:15:13.914Z,9.49
2023-02-05T01:16:17.291Z,9.49
2023-02-05T01:17:18.966Z,9.50
2023-02-05T01:18:21.480Z,9.50
2023-02-05T01:19:29.374Z,9.52
2023-02-05T01:20:33.652Z,9.53
2023-02-05T01:21:45.226Z,9.53
2023-02-05T01:22:49.245Z,9.52
2023-02-05T01:24:01.707Z,9.51
2023-02-05T01:25:03.958Z,9.52
2023-02-05T01:26:07.463Z,9.51
2023-02-05T01:27:08.992Z,9.50
2023-02-05T01:28:11.565Z,9.51
2023-02-05T01:29:13.152Z,9.51
2023-02-05T01:30:15.994Z,9.51
2023-02-05T01:31:17.773Z,9.50
2023-02-05T01:32:20.760Z,9.49
2023-02-05T01:33:22.528Z,9.50
2023-02-05T01:34:35.065Z,9.49
2023-02-05T01:35:38.037Z,9.48
2023-02-05T01:36:50.630Z,9.47
2023-02-05T01:37:53.836Z,9.46
2023-02-05T01:38:57.195Z,9.45
2023-02-05T01:40:13.533Z,9.43
2023-02-05T01:41:17.573Z,9.41
2023-02-05T01:42:22.106Z,9.39
2023-02-05T01:43:24.664Z,9.37
2023-02-05T01:44:26.307Z,9.35
2023-02-05T01:46:06.626Z,9.33
2023-02-05T01:47:09.274Z,9.32
2023-02-05T01:48:10.870Z,9.31
2023-02-05T01:49:19.342Z,9.30
2023-02-05T01:50:24.731Z,9.30
2023-02-05T01:51:39.015Z,9.30
2023-02-05T01:52:40.814Z,9.29
2023-02-05T01:53:53.082Z,9.27
2023-02-05T01:54:55.038Z,9.28
2023-02-05T01:56:01.297Z,9.29
2023-02-05T01:57:06.499Z,9.30
2023-02-05T01:58:10.075Z,9.29
2023-02-05T01:59:17.186Z,9.30
2023-02-05T02:00:18.844Z,9.31
2023-02-05T02:01:25.268Z,9.31
2023-02-05T02:02:26.791Z,9.31
2023-02-05T02:03:32.056Z,9.33
2023-02-05T02:04:38.066Z,9.33
2023-02-05T02:05:40.647Z,9.34
2023-02-05T02:06:44.388Z,9.35
2023-02-05T02:07:56.839Z,9.36
2023-02-05T02:08:58.748Z,9.36
2023-02-05T02:10:14.839Z,9.38
2023-02-05T02:11:29.306Z,9.37
2023-02-05T02:12:44.634Z,9.38
2023-02-05T02:13:48.757Z,9.37
2023-02-05T02:14:56.127Z,9.36
2023-02-05T02:15:58.552Z,9.37
2023-02-05T02:17:03.154Z,9.36
2023-02-05T02:18:25.502Z,9.36
2023-02-05T02:19:33.432Z,9.37
2023-02-05T02:20:38.697Z,9.37
2023-02-05T02:22:03.786Z,9.39
2023-02-05T02:23:21.408Z,9.39
2023-02-05T02:24:43.884Z,9.42
2023-02-05T02:25:58.853Z,9.41
2023-02-05T02:27:22.061Z,9.42
2023-02-05T02:28:39.554Z,9.45
2023-02-05T02:29:51.426Z,9.44
2023-02-05T02:31:03.301Z,9.44
2023-02-05T02:32:14.494Z,9.43
2023-02-05T02:33:21.799Z,9.43
2023-02-05T02:34:29.551Z,9.43
2023-02-05T02:35:36.669Z,9.45
2023-02-05T02:36:47.768Z,9.43
2023-02-05T02:37:57.421Z,9.45
2023-02-05T02:39:07.380Z,9.46
2023-02-05T02:40:16.879Z,9.46
2023-02-05T02:41:25.300Z,9.47
2023-02-05T02:42:34.511Z,9.49
2023-02-05T02:43:45.675Z,9.50
2023-02-05T02:45:00.170Z,9.51
2023-02-05T02:46:20.722Z,9.52
2023-02-05T02:47:26.080Z,9.52
2023-02-05T02:48:42.542Z,9.52
2023-02-05T02:49:57.409Z,9.52
2023-02-05T02:51:02.088Z,9.51
2023-02-05T02:52:06.867Z,9.52
2023-02-05T02:53:14.060Z,9.53
2023-02-05T02:54:19.610Z,9.54
2023-02-05T02:55:24.397Z,9.52
2023-02-05T02:56:29.327Z,9.51
2023-02-05T02:57:35.376Z,9.51
2023-02-05T02:58:43.793Z,9.52
2023-02-05T02:59:48.330Z,9.52
2023-02-05T03:00:52.562Z,9.54
2023-02-05T03:01:59.853Z,9.55
2023-02-05T03:03:07.510Z,9.53
2023-02-05T03:04:15.679Z,9.53
2023-02-05T03:05:30.486Z,9.52
2023-02-05T03:06:46.474Z,9.51
2023-02-05T03:07:52.801Z,9.50
2023-02-05T03:08:59.081Z,9.48
2023-02-05T03:10:04.218Z,9.48
2023-02-05T03:11:13.208Z,9.47
2023-02-05T03:12:15.583Z,9.48
2023-02-05T03:13:19.478Z,9.46
2023-02-05T03:14:22.371Z,9.48
2023-02-05T03:15:25.095Z,9.47
2023-02-05T03:16:27.457Z,9.48
2023-02-05T03:17:30.586Z,9.49
2023-02-05T03:18:32.343Z,9.49
2023-02-05T03:19:34.881Z,9.50
2023-02-05T03:20:41.929Z,9.52
2023-02-05T03:21:48.994Z,9.52
2023-02-05T03:22:50.770Z,9.52
2023-02-05T03:24:03.279Z,9.54
2023-02-05T03:25:08.167Z,9.54
2023-02-05T03:26:23.955Z,9.54
2023-02-05T03:27:25.548Z,9.55
2023-02-05T03:28:28.220Z,9.55
2023-02-05T03:29:35.469Z,9.54
2023-02-05T03:30:47.103Z,9.54
2023-02-05T03:32:10.342Z,9.54
2023-02-05T03:33:26.325Z,9.53
2023-02-05T03:34:49.405Z,9.52
2023-02-05T03:36:09.979Z,9.52
2023-02-05T03:37:19.620Z,9.53
2023-02-05T03:38:39.767Z,9.55
2023-02-05T03:40:03.023Z,9.54
2023-02-05T03:41:15.730Z,9.53
2023-02-05T03:42:32.169Z,9.52
2023-02-05T03:43:52.117Z,9.52
2023-02-05T03:45:22.782Z,9.51
2023-02-05T03:46:32.782Z,9.50
2023-02-05T03:47:44.063Z,9.51
2023-02-05T03:48:59.026Z,9.51
2023-02-05T03:50:11.026Z,9.51
2023-02-05T03:51:31.862Z,9.51
2023-02-05T03:52:37.790Z,9.52
2023-02-05T03:53:50.998Z,9.52
2023-02-05T03:55:07.452Z,9.53
2023-02-05T03:56:25.214Z,9.53
2023-02-05T03:57:32.687Z,9.53
2023-02-05T03:58:39.353Z,9.53
2023-02-05T03:59:41.198Z,9.52
2023-02-05T04:00:45.895Z,9.52
2023-02-05T04:01:47.796Z,9.55
2023-02-05T04:02:50.267Z,9.55
2023-02-05T04:03:52.398Z,9.57
2023-02-05T04:04:54.944Z,9.58
2023-02-05T04:06:01.824Z,9.59
2023-02-05T04:07:14.378Z,9.59
2023-02-05T04:08:25.919Z,9.59
2023-02-05T04:09:28.574Z,9.59
2023-02-05T04:10:30.077Z,9.60
2023-02-05T04:11:33.458Z,9.59
2023-02-05T04:12:35.028Z,9.59
2023-02-05T04:13:37.689Z,9.60
2023-02-05T04:14:39.203Z,9.60
2023-02-05T04:15:41.887Z,9.59
2023-02-05T04:16:44.836Z,9.60
2023-02-05T04:17:47.342Z,9.61
2023-02-05T04:18:48.865Z,9.60
2023-02-05T04:19:51.541Z,9.58
2023-02-05T04:21:03.210Z,9.56
2023-02-05T04:22:15.715Z,9.53
2023-02-05T04:23:17.368Z,9.50
2023-02-05T04:24:25.854Z,9.51
2023-02-05T04:25:31.955Z,9.48
2023-02-05T04:26:44.558Z,9.47
2023-02-05T04:27:46.146Z,9.46
2023-02-05T04:28:48.670Z,9.47
2023-02-05T04:29:50.215Z,9.45
2023-02-05T04:30:52.766Z,9.46
2023-02-05T04:31:55.781Z,9.47
2023-02-05T04:32:58.250Z,9.48
2023-02-05T04:33:59.902Z,9.47
2023-02-05T04:35:02.397Z,9.47
2023-02-05T04:36:04.756Z,9.45
2023-02-05T04:37:07.277Z,9.46
2023-02-05T04:38:18.805Z,9.45
2023-02-05T04:39:31.472Z,9.44
2023-02-05T04:40:33.676Z,9.43
2023-02-05T04:41:46.142Z,9.41
2023-02-05T04:42:47.681Z,9.39
2023-02-05T04:43:50.201Z,9.39
2023-02-05T04:44:52.754Z,9.38
2023-02-05T04:45:55.305Z,9.36
2023-02-05T04:46:58.343Z,9.34
2023-02-05T04:48:02.134Z,9.34
2023-02-05T04:49:03.902Z,9.35
2023-02-05T04:50:07.316Z,9.34
2023-02-05T04:51:10.134Z,9.33
2023-02-05T04:52:12.680Z,9.32
2023-02-05T04:53:14.356Z,9.32
2023-02-05T04:54:23.262Z,9.32
2023-02-05T04:55:29.829Z,9.32
2023-02-05T04:56:42.503Z,9.31
2023-02-05T04:57:54.056Z,9.31
2023-02-05T04:58:56.702Z,9.32
2023-02-05T04:59:58.453Z,9.32
2023-02-05T05:01:04.680Z,9.32
2023-02-05T05:02:07.618Z,9.33
2023-02-05T05:03:10.131Z,9.34
2023-02-05T05:04:11.670Z,9.36
2023-02-05T05:05:14.338Z,9.37
2023-02-05T05:06:19.519Z,9.38
2023-02-05T05:07:22.129Z,9.40
2023-02-05T05:08:23.661Z,9.41
2023-02-05T05:09:26.368Z,9.43
2023-02-05T05:10:28.332Z,9.44
2023-02-05T05:11:31.073Z,9.45
2023-02-05T05:12:42.602Z,9.46
2023-02-05T05:13:55.118Z,9.46
2023-02-05T05:14:57.260Z,9.45
2023-02-05T05:16:10.710Z,9.46
2023-02-05T05:17:14.626Z,9.47
2023-02-05T05:18:17.098Z,9.46
2023-02-05T05:19:18.608Z,9.45
2023-02-05T05:20:21.128Z,9.46
2023-02-05T05:21:22.750Z,9.46
2023-02-05T05:22:25.240Z,9.45
2023-02-05T05:23:26.822Z,9.47
2023-02-05T05:24:29.293Z,9.46
2023-02-05T05:25:30.874Z,9.46
2023-02-05T05:26:35.750Z,9.48
2023-02-05T05:27:37.325Z,9.48
2023-02-05T05:28:39.854Z,9.49
2023-02-05T05:29:41.472Z,9.49
2023-02-05T05:30:46.199Z,9.50
2023-02-05T05:31:47.872Z,9.49
2023-02-05T05:32:51.726Z,9.49
2023-02-05T05:33:53.267Z,9.50
2023-02-05T05:34:57.026Z,9.49
2023-02-05T05:35:58.588Z,9.49
2023-02-05T05:37:01.439Z,9.49
2023-02-05T05:38:12.999Z,9.48
2023-02-05T05:39:42.762Z,9.46
2023-02-05T05:41:03.079Z,9.45
2023-02-05T05:42:23.928Z,9.42
2023-02-05T05:43:44.181Z,9.43
2023-02-05T05:44:49.990Z,9.42
2023-02-05T05:45:52.777Z,9.40
2023-02-05T05:46:55.308Z,9.41
2023-02-05T05:47:58.192Z,9.42
2023-02-05T05:49:02.557Z,9.41
2023-02-05T05:50:04.882Z,9.42
2023-02-05T05:51:07.351Z,9.42
2023-02-05T05:52:09.022Z,9.42
2023-02-05T05:53:21.684Z,9.43
2023-02-05T05:54:33.241Z,9.44
2023-02-05T05:55:41.882Z,9.44
2023-02-05T05:56:45.075Z,9.46
2023-02-05T05:57:47.714Z,9.45
2023-02-05T05:58:49.887Z,9.45
2023-02-05T05:59:52.439Z,9.47
2023-02-05T06:00:54.659Z,9.48
2023-02-05T06:01:57.150Z,9.46
2023-02-05T06:03:00.015Z,9.47
2023-02-05T06:04:04.233Z,9.47
2023-02-05T06:05:06.543Z,9.47
2023-02-05T06:06:10.009Z,9.47
2023-02-05T06:07:11.729Z,9.47
2023-02-05T06:08:16.159Z,9.46
2023-02-05T06:09:17.740Z,9.47
2023-02-05T06:10:20.422Z,9.48
2023-02-05T06:11:24.554Z,9.48
2023-02-05T06:12:36.201Z,9.48
2023-02-05T06:13:39.931Z,9.49
2023-02-05T06:14:48.334Z,9.48
2023-02-05T06:16:01.165Z,9.49
2023-02-05T06:17:02.713Z,9.49
2023-02-05T06:18:07.225Z,9.49
2023-02-05T06:19:08.735Z,9.48
2023-02-05T06:20:13.870Z,9.48
2023-02-05T06:21:15.405Z,9.48
2023-02-05T06:22:17.870Z,9.48
2023-02-05T06:23:19.394Z,9.47
2023-02-05T06:24:21.979Z,9.48
2023-02-05T06:25:23.661Z,9.48
2023-02-05T06:26:26.188Z,9.48
2023-02-05T06:27:37.705Z,9.47
2023-02-05T06:28:40.706Z,9.48
2023-02-05T06:29:42.982Z,9.49
2023-02-05T06:30:45.567Z,9.49
2023-02-05T06:31:47.498Z,9.49
2023-02-05T06:32:56.385Z,9.47
2023-02-05T06:34:10.180Z,9.45
2023-02-05T06:35:11.774Z,9.43
2023-02-05T06:36:24.871Z,9.43
2023-02-05T06:37:45.485Z,9.42
2023-02-05T06:38:48.993Z,9.42
2023-02-05T06:39:50.561Z,9.40
2023-02-05T06:40:53.044Z,9.40
2023-02-05T06:41:54.581Z,9.39
2023-02-05T06:42:57.148Z,9.37
2023-02-05T06:43:58.709Z,9.39
2023-02-05T06:45:01.356Z,9.40
2023-02-05T06:46:12.959Z,9.39
2023-02-05T06:47:15.811Z,9.40
2023-02-05T06:48:18.379Z,9.39
2023-02-05T06:49:25.779Z,9.40
2023-02-05T06:50:37.330Z,9.40
2023-02-05T06:51:39.933Z,9.39
2023-02-05T06:52:41.457Z,9.40
2023-02-05T06:53:44.500Z,9.40
2023-02-05T06:54:46.002Z,9.40
2023-02-05T06:55:59.017Z,9.40
2023-02-05T06:57:00.550Z,9.40
2023-02-05T06:58:03.028Z,9.40
2023-02-05T06:59:04.726Z,9.40
2023-02-05T07:00:08.463Z,9.39
2023-02-05T07:01:10.305Z,9.39
2023-02-05T07:02:14.779Z,9.39
2023-02-05T07:03:16.354Z,9.39
2023-02-05T07:04:30.882Z,9.39
2023-02-05T07:05:33.658Z,9.39
2023-02-05T07:06:36.274Z,9.40
2023-02-05T07:07:37.910Z,9.39
2023-02-05T07:08:40.368Z,9.38
2023-02-05T07:09:41.930Z,9.38
2023-02-05T07:10:44.431Z,9.38
2023-02-05T07:11:45.922Z,9.36
2023-02-05T07:12:48.496Z,9.35
2023-02-05T07:13:50.032Z,9.35
2023-02-05T07:14:52.593Z,9.36
2023-02-05T07:15:55.306Z,9.36
2023-02-05T07:17:08.453Z,9.36
2023-02-05T07:18:20.049Z,9.33
2023-02-05T07:19:23.130Z,9.32
2023-02-05T07:20:26.033Z,9.32
2023-02-05T07:21:38.519Z,9.30
2023-02-05T07:22:40.078Z,9.29
2023-02-05T07:23:42.927Z,9.28
2023-02-05T07:24:44.442Z,9.27
2023-02-05T07:25:46.941Z,9.25
2023-02-05T07:26:48.483Z,9.23
2023-02-05T07:27:50.968Z,9.21
2023-02-05T07:28:52.660Z,9.20
2023-02-05T07:29:55.164Z,9.18
2023-02-05T07:31:02.957Z,9.15
2023-02-05T07:32:05.942Z,9.14
2023-02-05T07:33:07.964Z,9.12
2023-02-05T07:34:10.604Z,9.12
2023-02-05T07:35:12.138Z,9.11
2023-02-05T07:36:17.942Z,9.12
2023-02-05T07:37:21.348Z,9.11
2023-02-05T07:38:24.871Z,9.12
2023-02-05T07:39:27.966Z,9.11
2023-02-05T07:40:30.556Z,9.11
2023-02-05T07:41:32.077Z,9.11
2023-02-05T07:42:35.229Z,9.12
2023-02-05T07:43:39.323Z,9.11
2023-02-05T07:44:51.815Z,9.10
2023-02-05T07:46:07.672Z,9.11
2023-02-05T07:47:09.381Z,9.12
2023-02-05T07:48:12.008Z,9.11
2023-02-05T07:49:13.542Z,9.12
2023-02-05T07:50:16.616Z,9.12
2023-02-05T07:51:20.947Z,9.13
2023-02-05T07:52:23.585Z,9.13
2023-02-05T07:53:25.633Z,9.13
2023-02-05T07:54:28.199Z,9.13
2023-02-05T07:55:29.732Z,9.11
2023-02-05T07:56:32.263Z,9.12
2023-02-05T07:57:46.757Z,9.12
2023-02-05T07:58:48.979Z,9.11
2023-02-05T08:00:01.489Z,9.12
2023-02-05T08:01:17.205Z,9.10
2023-02-05T08:02:19.845Z,9.11
2023-02-05T08:03:23.322Z,9.11
2023-02-05T08:04:25.917Z,9.11
2023-02-05T08:05:27.980Z,9.11
2023-02-05T08:06:33.018Z,9.10
2023-02-05T08:07:34.825Z,9.09
2023-02-05T08:08:37.378Z,9.08
2023-02-05T08:09:38.973Z,9.09
2023-02-05T08:10:41.479Z,9.07
2023-02-05T08:11:43.154Z,9.06
2023-02-05T08:12:55.754Z,9.06
2023-02-05T08:14:07.259Z,9.04
2023-02-05T08:15:19.854Z,9.03
2023-02-05T08:16:21.598Z,9.01
2023-02-05T08:17:24.236Z,9.00
2023-02-05T08:18:26.060Z,8.99
2023-02-05T08:19:28.649Z,8.97
2023-02-05T08:20:30.333Z,8.97
2023-02-05T08:21:34.169Z,8.96
2023-02-05T08:22:45.724Z,8.95
2023-02-05T08:23:48.901Z,8.94
2023-02-05T08:24:51.448Z,8.94
2023-02-05T08:25:53.741Z,8.93
2023-02-05T08:26:56.206Z,8.93
2023-02-05T08:27:57.814Z,8.92
2023-02-05T08:29:10.850Z,8.90
2023-02-05T08:30:23.739Z,8.89
2023-02-05T08:31:26.064Z,8.88
2023-02-05T08:32:28.917Z,8.87
2023-02-05T08:33:30.456Z,8.86
2023-02-05T08:34:34.087Z,8.85
2023-02-05T08:35:36.806Z,8.83
2023-02-05T08:36:40.848Z,8.77
2023-02-05T08:37:42.387Z,8.71
2023-02-05T08:38:44.971Z,8.67
2023-02-05T08:39:46.589Z,8.61
2023-02-05T08:40:59.140Z,8.55
2023-02-05T08:42:01.653Z,8.50
2023-02-05T08:43:03.269Z,8.47
2023-02-05T08:44:06.253Z,8.45
2023-02-05T08:45:08.955Z,8.45
2023-02-05T08:46:12.765Z,8.44
2023-02-05T08:47:24.870Z,8.43
2023-02-05T08:48:27.429Z,8.42
2023-02-05T08:49:29.938Z,8.43
2023-02-05T08:50:31.518Z,8.45
2023-02-05T08:51:35.627Z,8.45
2023-02-05T08:52:39.573Z,8.44
2023-02-05T08:53:41.286Z,8.43
2023-02-05T08:54:43.865Z,8.40
2023-02-05T08:55:55.690Z,8.38
2023-02-05T08:56:58.165Z,8.35
2023-02-05T08:57:59.855Z,8.36
2023-02-05T08:59:03.342Z,8.34
2023-02-05T09:00:05.725Z,8.35
2023-02-05T09:01:12.727Z,8.35
2023-02-05T09:02:28.456Z,8.34
2023-02-05T09:03:33.596Z,8.34
2023-02-05T09:04:44.560Z,8.33
2023-02-05T09:05:46.317Z,8.31
2023-02-05T09:06:49.312Z,8.31
2023-02-05T09:07:52.167Z,8.32
2023-02-05T09:08:54.622Z,8.34
2023-02-05T09:09:56.567Z,8.36
2023-02-05T09:10:59.090Z,8.38
2023-02-05T09:12:00.898Z,8.40
2023-02-05T09:13:03.385Z,8.42
2023-02-05T09:14:07.187Z,8.44
2023-02-05T09:15:10.936Z,8.45
2023-02-05T09:16:23.458Z,8.47
2023-02-05T09:17:35.892Z,8.47
2023-02-05T09:18:37.757Z,8.49
2023-02-05T09:19:41.295Z,8.50
2023-02-05T09:20:45.019Z,8.51
2023-02-05T09:21:47.488Z,8.52
2023-02-05T09:22:50.256Z,8.53
2023-02-05T09:23:55.371Z,8.54
2023-02-05T09:24:56.895Z,8.55
2023-02-05T09:25:59.458Z,8.56
2023-02-05T09:27:01.098Z,8.55
2023-02-05T09:28:03.745Z,8.56
2023-02-05T09:29:16.246Z,8.54
2023-02-05T09:30:18.129Z,8.52
2023-02-05T09:31:22.071Z,8.53
2023-02-05T09:32:24.675Z,8.53
2023-02-05T09:33:29.999Z,8.54
2023-02-05T09:34:35.725Z,8.57
2023-02-05T09:35:47.250Z,8.58
2023-02-05T09:36:50.601Z,8.59
2023-02-05T09:37:52.258Z,8.60
2023-02-05T09:39:12.070Z,8.58
2023-02-05T09:40:22.026Z,8.57
2023-02-05T09:41:29.368Z,8.56
2023-02-05T09:42:40.967Z,8.54
2023-02-05T09:43:52.430Z,8.52
2023-02-05T09:45:07.571Z,8.51
2023-02-05T09:46:15.276Z,8.50
2023-02-05T09:47:23.831Z,8.51
2023-02-05T09:48:49.503Z,8.52
2023-02-05T09:50:02.732Z,8.52
2023-02-05T09:51:14.475Z,8.52
2023-02-05T09:52:31.477Z,8.50
2023-02-05T09:53:47.724Z,8.47
2023-02-05T09:55:07.493Z,8.45
2023-02-05T09:56:17.197Z,8.45
2023-02-05T09:57:31.148Z,8.43
2023-02-05T09:58:35.785Z,8.44
2023-02-05T09:59:42.774Z,8.44
2023-02-05T10:00:46.588Z,8.46
2023-02-05T10:02:01.278Z,8.49
2023-02-05T10:03:10.487Z,8.48
2023-02-05T10:04:13.903Z,8.51
2023-02-05T10:05:17.751Z,8.53
2023-02-05T10:06:40.196Z,8.56
2023-02-05T10:07:53.604Z,8.58
2023-02-05T10:09:02.333Z,8.60
2023-02-05T10:10:22.343Z,8.63
2023-02-05T10:11:34.041Z,8.64
2023-02-05T10:13:04.597Z,8.67
2023-02-05T10:14:18.621Z,8.68
2023-02-05T10:15:33.168Z,8.69
2023-02-05T10:16:58.189Z,8.68
2023-02-05T10:18:22.057Z,8.68
2023-02-05T10:19:41.250Z,8.67
2023-02-05T10:20:58.361Z,8.67
2023-02-05T10:22:12.499Z,8.69
2023-02-05T10:23:17.920Z,8.67
2023-02-05T10:24:35.165Z,8.64
2023-02-05T10:25:50.218Z,8.64
2023-02-05T10:26:58.728Z,8.63
2023-02-05T10:28:09.836Z,8.61
2023-02-05T10:29:28.523Z,8.60
2023-02-05T10:30:36.179Z,8.61
2023-02-05T10:31:42.447Z,8.61
2023-02-05T10:32:56.903Z,8.61
2023-02-05T10:34:07.829Z,8.61
2023-02-05T10:35:22.717Z,8.61
2023-02-05T10:36:35.296Z,8.62
2023-02-05T10:37:44.046Z,8.61
2023-02-05T10:38:46.227Z,8.63
2023-02-05T10:39:50.134Z,8.65
2023-02-05T10:41:00.044Z,8.69
2023-02-05T10:42:07.683Z,8.70
2023-02-05T10:43:20.310Z,8.71
2023-02-05T10:44:30.284Z,8.71
2023-02-05T10:45:34.259Z,8.72
2023-02-05T10:46:37.472Z,8.72
2023-02-05T10:48:16.236Z,8.70
2023-02-05T10:49:39.278Z,8.67
2023-02-05T10:50:52.468Z,8.66
2023-02-05T10:51:59.526Z,8.64
2023-02-05T10:53:02.259Z,8.62
2023-02-05T10:54:10.262Z,8.60
2023-02-05T10:55:13.776Z,8.59
2023-02-05T10:56:28.125Z,8.61
2023-02-05T10:57:35.909Z,8.62
2023-02-05T10:58:43.315Z,8.64
2023-02-05T10:59:58.861Z,8.65
2023-02-05T11:01:08.713Z,8.69
2023-02-05T11:02:12.133Z,8.69
2023-02-05T11:03:17.993Z,8.69
2023-02-05T11:04:27.956Z,8.71
2023-02-05T11:05:37.622Z,8.73
2023-02-05T11:06:43.987Z,8.74
2023-02-05T11:07:47.337Z,8.75
2023-02-05T11:08:49.836Z,8.76
2023-02-05T11:09:52.367Z,8.77
2023-02-05T11:11:03.184Z,8.80
2023-02-05T11:12:18.518Z,8.80
2023-02-05T11:13:22.036Z,8.80
2023-02-05T11:14:32.039Z,8.77
2023-02-05T11:15:33.835Z,8.76
2023-02-05T11:16:46.669Z,8.74
2023-02-05T11:17:55.307Z,8.73
2023-02-05T11:19:02.957Z,8.74
2023-02-05T11:20:26.694Z,8.72
2023-02-05T11:21:51.926Z,8.66
2023-02-05T11:23:08.393Z,8.60
2023-02-05T11:24:29.173Z,8.57
2023-02-05T11:25:32.122Z,8.52
2023-02-05T11:26:33.646Z,8.50
2023-02-05T11:27:38.407Z,8.49
2023-02-05T11:28:40.943Z,8.49
2023-02-05T11:29:42.964Z,8.48
2023-02-05T11:30:53.316Z,8.49
2023-02-05T11:31:55.966Z,8.48
2023-02-05T11:32:59.117Z,8.49
2023-02-05T11:34:12.690Z,8.46
2023-02-05T11:35:21.985Z,8.46
2023-02-05T11:36:26.053Z,8.43
2023-02-05T11:37:27.626Z,8.42
2023-02-05T11:38:38.981Z,8.41
2023-02-05T11:39:42.806Z,8.42
2023-02-05T11:40:52.946Z,8.41
2023-02-05T11:42:11.196Z,8.41
2023-02-05T11:43:22.983Z,8.37
2023-02-05T11:44:30.122Z,8.36
2023-02-05T11:45:33.948Z,8.35
2023-02-05T11:46:44.923Z,8.36
2023-02-05T11:47:46.529Z,8.36
2023-02-05T11:48:56.349Z,8.38
2023-02-05T11:49:59.167Z,8.38
2023-02-05T11:51:02.805Z,8.38
2023-02-05T11:52:10.569Z,8.39
2023-02-05T11:53:16.334Z,8.40
2023-02-05T11:54:22.344Z,8.40
2023-02-05T11:55:27.045Z,8.41
2023-02-05T11:56:29.608Z,8.43
2023-02-05T11:57:33.788Z,8.43
2023-02-05T11:58:38.265Z,8.44
2023-02-05T11:59:41.115Z,8.46
2023-02-05T12:00:52.218Z,8.47
2023-02-05T12:01:55.285Z,8.48
2023-02-05T12:03:04.520Z,8.49
2023-02-05T12:04:19.061Z,8.50
2023-02-05T12:05:25.070Z,8.52
2023-02-05T12:06:32.858Z,8.53
2023-02-05T12:07:40.096Z,8.53
2023-02-05T12:08:48.052Z,8.54
2023-02-05T12:09:52.810Z,8.52
2023-02-05T12:11:03.448Z,8.53
2023-02-05T12:12:16.636Z,8.55
2023-02-05T12:13:27.077Z,8.54
2023-02-05T12:14:38.990Z,8.54
2023-02-05T12:15:53.696Z,8.53
2023-02-05T12:17:02.497Z,8.54
2023-02-05T12:18:19.087Z,8.56
2023-02-05T12:19:24.155Z,8.55
2023-02-05T12:20:30.790Z,8.56
2023-02-05T12:21:42.422Z,8.56
2023-02-05T12:23:02.077Z,8.55
2023-02-05T12:24:23.430Z,8.56
2023-02-05T12:25:34.201Z,8.56
2023-02-05T12:26:40.008Z,8.55
2023-02-05T12:28:00.445Z,8.54
2023-02-05T12:29:18.260Z,8.53
2023-02-05T12:30:33.762Z,8.51
2023-02-05T12:31:59.620Z,8.52
2023-02-05T12:33:29.571Z,8.51
2023-02-05T12:34:42.345Z,8.52
2023-02-05T12:35:59.262Z,8.52
2023-02-05T12:37:28.740Z,8.51
2023-02-05T12:38:47.814Z,8.52
2023-02-05T12:39:54.422Z,8.54
2023-02-05T12:41:10.768Z,8.54
2023-02-05T12:42:25.254Z,8.55
2023-02-05T12:43:38.018Z,8.54
2023-02-05T12:44:59.389Z,8.55
2023-02-05T12:46:14.338Z,8.58
2023-02-05T12:47:31.431Z,8.59
2023-02-05T12:48:58.156Z,8.59
2023-02-05T12:50:11.722Z,8.60
2023-02-05T12:51:27.231Z,8.61
2023-02-05T12:52:41.775Z,8.62
2023-02-05T12:54:00.450Z,8.65
2023-02-05T12:55:18.994Z,8.65
2023-02-05T12:56:36.639Z,8.65
2023-02-05T12:57:44.042Z,8.65
2023-02-05T12:58:51.650Z,8.67
2023-02-05T12:59:59.660Z,8.66
2023-02-05T13:01:08.768Z,8.66
2023-02-05T13:02:24.800Z,8.66
2023-02-05T13:03:36.287Z,8.68
2023-02-05T13:04:43.827Z,8.67
2023-02-05T13:05:49.268Z,8.66
2023-02-05T13:06:55.691Z,8.65
2023-02-05T13:08:03.267Z,8.65
2023-02-05T13:09:13.195Z,8.67
2023-02-05T13:10:19.661Z,8.67
2023-02-05T13:11:28.428Z,8.67
2023-02-05T13:12:38.112Z,8.68
2023-02-05T13:13:50.438Z,8.69
2023-02-05T13:15:02.010Z,8.71
2023-02-05T13:16:10.539Z,8.71
2023-02-05T13:17:17.582Z,8.71
2023-02-05T13:18:24.876Z,8.72
2023-02-05T13:19:30.089Z,8.71
2023-02-05T13:20:54.894Z,8.70
2023-02-05T13:22:16.281Z,8.69
2023-02-05T13:23:37.158Z,8.68
2023-02-05T13:25:04.671Z,8.67
2023-02-05T13:26:26.086Z,8.69
2023-02-05T13:27:49.880Z,8.72
2023-02-05T13:28:55.069Z,8.73
2023-02-05T13:29:56.737Z,8.76
2023-02-05T13:31:02.638Z,8.75
2023-02-05T13:32:16.030Z,8.76
2023-02-05T13:33:18.880Z,8.76
2023-02-05T13:34:22.841Z,8.76
2023-02-05T13:35:26.269Z,8.76
2023-02-05T13:37:10.985Z,8.77
2023-02-05T13:38:27.128Z,8.76
2023-02-05T13:39:46.370Z,8.77
2023-02-05T13:41:10.795Z,8.76
2023-02-05T13:42:31.085Z,8.78
2023-02-05T13:44:08.920Z,8.78
2023-02-05T13:45:38.004Z,8.79
2023-02-05T13:47:27.455Z,8.81
2023-02-05T13:49:01.825Z,8.83
2023-02-05T13:50:28.036Z,8.84
2023-02-05T13:51:42.967Z,8.86
2023-02-05T13:53:15.080Z,8.89
2023-02-05T13:54:57.398Z,8.93
2023-02-05T13:56:36.450Z,8.93
2023-02-05T13:58:09.527Z,8.94
2023-02-05T13:59:17.919Z,8.98
2023-02-05T14:00:19.997Z,8.97
2023-02-05T14:01:31.778Z,8.99
2023-02-05T14:02:40.940Z,8.99
2023-02-05T14:03:54.890Z,9.03
2023-02-05T14:04:57.049Z,9.02
2023-02-05T14:05:59.635Z,9.04
2023-02-05T14:07:05.243Z,9.04
2023-02-05T14:08:20.420Z,9.04
2023-02-05T14:09:30.041Z,9.04
2023-02-05T14:10:35.722Z,9.04
2023-02-05T14:11:52.857Z,9.04
2023-02-05T14:13:10.239Z,9.06
2023-02-05T14:14:26.737Z,9.06
2023-02-05T14:15:39.614Z,9.06
2023-02-05T14:16:42.555Z,9.07
2023-02-05T14:17:55.562Z,9.08
2023-02-05T14:19:13.147Z,9.10
2023-02-05T14:20:33.577Z,9.12
2023-02-05T14:21:59.396Z,9.14
2023-02-05T14:23:02.706Z,9.14
2023-02-05T14:24:27.489Z,9.16
2023-02-05T14:26:06.845Z,9.17
2023-02-05T14:27:51.034Z,9.19
2023-02-05T14:28:53.693Z,9.22
2023-02-05T14:29:55.698Z,9.23
2023-02-05T14:30:59.518Z,9.23
2023-02-05T14:32:01.122Z,9.22
2023-02-05T14:33:26.431Z,9.20
2023-02-05T14:34:45.106Z,9.15
2023-02-05T14:35:48.889Z,9.16
2023-02-05T14:36:51.657Z,9.17
2023-02-05T14:37:59.705Z,9.17
2023-02-05T14:39:19.657Z,9.19
2023-02-05T14:40:35.668Z,9.20
2023-02-05T14:41:50.875Z,9.21
2023-02-05T14:43:08.518Z,9.21
2023-02-05T14:44:19.973Z,9.23
2023-02-05T14:45:24.395Z,9.22
2023-02-05T14:46:31.532Z,9.22
2023-02-05T14:47:36.528Z,9.21
2023-02-05T14:48:43.154Z,9.18
2023-02-05T14:49:47.942Z,9.18
2023-02-05T14:51:01.653Z,9.14
2023-02-05T14:52:07.838Z,9.13
2023-02-05T14:53:25.099Z,9.13
2023-02-05T14:54:30.125Z,9.11
2023-02-05T14:55:39.766Z,9.10
2023-02-05T14:56:46.926Z,9.09
2023-02-05T14:57:53.613Z,9.10
2023-02-05T14:59:01.398Z,9.10
2023-02-05T15:00:08.710Z,9.10
2023-02-05T15:01:44.917Z,9.12
2023-02-05T15:03:29.478Z,9.10
2023-02-05T15:04:43.836Z,9.09
2023-02-05T15:05:52.117Z,9.10
2023-02-05T15:06:56.001Z,9.10